Tylertown, MS

5:18 PM CDT on August 20, 2014 (GMT -0500)
Carr Memorial | Change Station
CLOSE
Current Station
Airport
Location: Bogalusa,
Elevation: 118 ft
Nearby Weather Stations

Elev 118 ft 30.81 °N, 89.86 °W | Updated 3 minutes ago

Mostly Cloudy
Mostly Cloudy
92 °F
Feels Like 99 °F
N
4
Wind Variable Wind from SW

Today
High -- | Low -- °F
--% Chance of Precip.
Yesterday
High -- | Low -- °F
Precip. -- in
6:29 AM 7:37 PM
Waning Crescent, 19% visible
Pressure 30.05 in
Visibility -9999.0 miles
Clouds Scattered Clouds 4600 ft
Mostly Cloudy 5500 ft
Mostly Cloudy 7500 ft
Heat Index 99 °F
Dew Point 72 °F
Humidity 52%
Rainfall 0.00 in
Snow Depth Not available.
UV 2 out of 12
Pollen 7.30 out of 12
Air Quality Not available.
Flu Activity Not available.
METAR KBXA 202215Z AUTO 23003KT SCT046 BKN055 BKN075 33/22 A3005 RMK AO2 LTG DSNT S AND NW T03320220 PWINO

More Conditions Fewer Conditions

Pressure 30.05 in
Visibility -9999.0 miles
Clouds Scattered Clouds 4600 ft
Mostly Cloudy 5500 ft
Mostly Cloudy 7500 ft
Heat Index 99 °F
Dew Point 72 °F
Humidity 52%
Rainfall 0.00 in
Snow Depth Not available.
UV 2 out of 12
Pollen 7.30 out of 12
Air Quality Not available.
Flu Activity Not available.
METAR KBXA 202215Z AUTO 23003KT SCT046 BKN055 BKN075 33/22 A3005 RMK AO2 LTG DSNT S AND NW T03320220 PWINO

More Conditions Fewer Conditions

10-Day Weather Forecast

Almanac

Astronomy

Aug. 20, 2014 Rise Set
Actual Time 6:29 AM CDT 7:37 PM CDT
Civil Twilight 6:04 AM CDT 8:03 PM CDT
Nautical Twilight 5:34 AM CDT 8:32 PM CDT
Astronomical Twilight 5:03 AM CDT 9:03 PM CDT
Moon 2:16 AM CDT 4:16 PM CDT
Length of Visible Light 13h 58m
Length of Day
13h 08m
Tomorrow will be 1m 42s shorter.
Waning Crescent, 19% of the Moon is Illuminated
Today
Waning Crescent
Aug 25
New
Sep 2
First Quarter
Sep 8
Full
Sep 15
Last Quarter

Today's Extremes

State Highs State Lows

Community

WunderPhotos

Upload Photos

1,745,773 photos uploaded!

Nearby

Snow Depth

Station Depth Elevation
No new snow has been reported.

Earthquake Activity

City Distance Mag. Time & Date
No recent earthquake activity has been reported nearby.
Minimum magnitude displayed is 2.5.

Coastal Water Temperatures

Place Temperature
No Stations Reporting

Nearby Weather Stations